Time;durP1;ratioP1;P1;durP2;ratioP2;P2;SDS_P1;SDS_P2;PMS_P1;PMS_P2;Temp;Humidity;BMP_temperature;BMP_pressure;BME280_temperature;BME280_humidity;BME280_pressure;Samples;Min_cycle;Max_cycle;Signal;HPM_P1;HPM_P2
2024/04/15 00:01:55;;;;;;;12.35;2.70;;;;;;;;;;5346701;26;19993;-66
2024/04/15 00:04:20;;;;;;;11.18;2.70;;;;;;;;;;5346437;26;19993;-66
2024/04/15 00:06:45;;;;;;;4.10;2.08;;;;;;;;;;5347260;26;20354;-66
2024/04/15 00:09:11;;;;;;;8.38;1.95;;;;;;;;;;5346687;26;20319;-66
2024/04/15 00:11:36;;;;;;;7.68;1.63;;;;;;;;;;5345862;26;20033;-66
2024/04/15 00:14:01;;;;;;;9.45;1.95;;;;;;;;;;5345817;26;20012;-66
2024/04/15 00:16:27;;;;;;;8.98;2.35;;;;;;;;;;5346296;26;20070;-66
2024/04/15 00:18:52;;;;;;;7.03;2.42;;;;;;;;;;5347400;26;19997;-66
2024/04/15 00:21:17;;;;;;;8.38;1.83;;;;;;;;;;5347322;26;20459;-66
2024/04/15 00:23:43;;;;;;;9.63;1.92;;;;;;;;;;5346247;26;19997;-66
2024/04/15 00:26:08;;;;;;;4.55;1.73;;;;;;;;;;5347068;26;19989;-66
2024/04/15 00:28:33;;;;;;;10.77;2.40;;;;;;;;;;5344866;26;20454;-66
2024/04/15 00:30:59;;;;;;;9.00;2.92;;;;;;;;;;5355424;21;20033;-68
2024/04/15 00:33:24;;;;;;;9.73;2.92;;;;;;;;;;5311851;26;19994;-68
2024/04/15 00:35:49;;;;;;;8.68;2.03;;;;;;;;;;5316613;26;19998;-68
2024/04/15 00:38:15;;;;;;;2.35;1.40;;;;;;;;;;5325086;26;20000;-68
2024/04/15 00:40:41;;;;;;;3.05;1.83;;;;;;;;;;5341190;26;20078;-68
2024/04/15 00:43:07;;;;;;;6.85;2.45;;;;;;;;;;5311460;26;20002;-68
2024/04/15 00:45:33;;;;;;;5.82;1.60;;;;;;;;;;5312706;26;20018;-68
2024/04/15 00:48:00;;;;;;;9.93;1.98;;;;;;;;;;5338821;26;20008;-68
2024/04/15 00:50:27;;;;;;;5.57;2.00;;;;;;;;;;5310072;27;20355;-68
2024/04/15 00:52:53;;;;;;;10.20;2.80;;;;;;;;;;5312180;26;20037;-68
2024/04/15 00:55:18;;;;;;;8.63;2.30;;;;;;;;;;5326744;26;19997;-68
2024/04/15 00:57:44;;;;;;;6.20;1.92;;;;;;;;;;5335031;26;19997;-68
2024/04/15 01:00:12;;;;;;;4.65;1.90;;;;;;;;;;5364572;26;20020;-68
2024/04/15 01:02:38;;;;;;;10.40;2.90;;;;;;;;;;5312246;26;20002;-69
2024/04/15 01:05:04;;;;;;;7.55;2.05;;;;;;;;;;5311015;26;20000;-67
2024/04/15 01:07:29;;;;;;;8.43;1.73;;;;;;;;;;5335251;26;20044;-68
2024/04/15 01:10:09;;;;;;;18.98;3.30;;;;;;;;;;5343160;26;20013;-68
2024/04/15 01:12:35;;;;;;;8.52;2.42;;;;;;;;;;5311914;26;19994;-68
2024/04/15 01:15:00;;;;;;;4.88;1.83;;;;;;;;;;5312003;26;20010;-68
2024/04/15 01:17:25;;;;;;;3.85;1.60;;;;;;;;;;5309765;26;20008;-67
2024/04/15 01:19:51;;;;;;;5.22;1.88;;;;;;;;;;5312071;26;20006;-68
2024/04/15 01:22:30;;;;;;;4.57;1.60;;;;;;;;;;5311973;26;20001;-68
2024/04/15 01:24:55;;;;;;;6.43;2.20;;;;;;;;;;5310309;27;19997;-68
2024/04/15 01:27:20;;;;;;;5.25;1.42;;;;;;;;;;5311278;26;20001;-68
2024/04/15 01:29:46;;;;;;;5.75;2.25;;;;;;;;;;5311553;26;19994;-68
2024/04/15 01:32:11;;;;;;;4.95;2.80;;;;;;;;;;5311917;26;20020;-68
2024/04/15 01:34:36;;;;;;;7.68;1.83;;;;;;;;;;5311748;26;20030;-68
2024/04/15 01:37:02;;;;;;;6.43;1.60;;;;;;;;;;5309978;27;20480;-68
2024/04/15 01:39:27;;;;;;;5.05;1.92;;;;;;;;;;5310969;26;20005;-67
2024/04/15 01:41:53;;;;;;;10.80;2.50;;;;;;;;;;5311610;26;20372;-68
2024/04/15 01:44:18;;;;;;;11.52;2.50;;;;;;;;;;5311664;26;20006;-68
2024/04/15 01:46:43;;;;;;;9.93;2.38;;;;;;;;;;5311554;26;20008;-68
2024/04/15 01:49:08;;;;;;;5.90;2.30;;;;;;;;;;5310675;26;20433;-68
2024/04/15 01:51:34;;;;;;;6.38;1.92;;;;;;;;;;5311565;26;20067;-68
2024/04/15 01:53:59;;;;;;;5.68;2.60;;;;;;;;;;5312412;26;20030;-68
2024/04/15 01:56:24;;;;;;;5.65;2.13;;;;;;;;;;5314731;26;20006;-68
2024/04/15 01:58:49;;;;;;;8.65;2.38;;;;;;;;;;5314202;26;20080;-68
2024/04/15 02:01:15;;;;;;;7.32;2.17;;;;;;;;;;5314680;26;20517;-68
2024/04/15 02:03:42;;;;;;;10.40;3.17;;;;;;;;;;5314857;26;20013;-67
2024/04/15 02:06:07;;;;;;;5.53;2.17;;;;;;;;;;5314623;26;20010;-68
2024/04/15 02:08:32;;;;;;;11.82;1.98;;;;;;;;;;5312421;27;20009;-68
2024/04/15 02:10:58;;;;;;;12.43;2.92;;;;;;;;;;5312697;27;20340;-68
2024/04/15 02:13:23;;;;;;;7.45;1.92;;;;;;;;;;5314472;27;20029;-68
2024/04/15 02:15:48;;;;;;;12.48;2.53;;;;;;;;;;5314628;26;20005;-68
2024/04/15 02:18:14;;;;;;;13.30;2.63;;;;;;;;;;5313967;26;20504;-68
2024/04/15 02:20:40;;;;;;;11.05;2.08;;;;;;;;;;5314511;26;20075;-68
2024/04/15 02:23:05;;;;;;;10.85;3.42;;;;;;;;;;5314394;26;19993;-68
2024/04/15 02:25:30;;;;;;;5.13;2.20;;;;;;;;;;5314363;26;20004;-68
2024/04/15 02:27:55;;;;;;;5.65;2.30;;;;;;;;;;5312770;27;20087;-68
2024/04/15 02:30:21;;;;;;;5.90;2.63;;;;;;;;;;5314154;26;20001;-68
2024/04/15 02:32:46;;;;;;;5.38;2.30;;;;;;;;;;5313636;26;20006;-68
2024/04/15 02:35:11;;;;;;;3.95;1.60;;;;;;;;;;5314413;26;20011;-68
2024/04/15 02:37:37;;;;;;;4.40;1.90;;;;;;;;;;5314418;26;19997;-68
2024/04/15 02:40:02;;;;;;;6.32;1.95;;;;;;;;;;5314179;26;20009;-67
2024/04/15 02:42:27;;;;;;;2.97;1.42;;;;;;;;;;5320010;26;20330;-67
2024/04/15 02:44:53;;;;;;;5.70;2.00;;;;;;;;;;5314025;26;20075;-68
2024/04/15 02:47:18;;;;;;;6.40;1.75;;;;;;;;;;5313283;26;20009;-68
2024/04/15 02:49:43;;;;;;;4.20;1.80;;;;;;;;;;5313520;26;20034;-68
2024/04/15 02:52:09;;;;;;;5.72;1.67;;;;;;;;;;5318823;26;19997;-67
2024/04/15 02:54:34;;;;;;;6.50;2.03;;;;;;;;;;5315365;26;20444;-67
2024/04/15 02:56:59;;;;;;;2.92;1.95;;;;;;;;;;5348401;26;20004;-67
2024/04/15 02:59:24;;;;;;;14.77;2.88;;;;;;;;;;5348037;26;19993;-67
2024/04/15 03:01:50;;;;;;;7.78;2.08;;;;;;;;;;5335920;26;20000;-68
2024/04/15 03:04:15;;;;;;;14.70;2.72;;;;;;;;;;5347800;26;20012;-67
2024/04/15 03:06:40;;;;;;;12.27;2.50;;;;;;;;;;5345815;26;19993;-67
2024/04/15 03:09:08;;;;;;;3.15;1.90;;;;;;;;;;5313737;27;19994;-68
2024/04/15 03:11:33;;;;;;;6.53;2.03;;;;;;;;;;5312462;26;20001;-67
2024/04/15 03:13:58;;;;;;;11.35;2.30;;;;;;;;;;5313531;27;20462;-66
2024/04/15 03:16:24;;;;;;;5.50;2.35;;;;;;;;;;5317274;26;19998;-68
2024/04/15 03:18:49;;;;;;;7.13;2.35;;;;;;;;;;5313017;26;20009;-67
2024/04/15 03:21:14;;;;;;;3.00;1.60;;;;;;;;;;5310570;26;19998;-67
2024/04/15 03:23:40;;;;;;;8.50;2.53;;;;;;;;;;5344916;26;20008;-67
2024/04/15 03:26:05;;;;;;;14.68;2.13;;;;;;;;;;5347132;26;19996;-67
2024/04/15 03:28:30;;;;;;;6.70;1.95;;;;;;;;;;5320785;26;20537;-68
2024/04/15 03:30:56;;;;;;;6.45;2.20;;;;;;;;;;5312424;26;20005;-67
2024/04/15 03:33:21;;;;;;;5.97;2.33;;;;;;;;;;5331068;26;20078;-68
2024/04/15 03:35:46;;;;;;;7.20;2.08;;;;;;;;;;5347702;26;19992;-67
2024/04/15 03:38:11;;;;;;;5.75;1.92;;;;;;;;;;5346698;26;20399;-67
2024/04/15 03:40:37;;;;;;;8.55;2.33;;;;;;;;;;5323352;26;20075;-67
2024/04/15 03:43:02;;;;;;;8.93;2.33;;;;;;;;;;5312714;27;19994;-67
2024/04/15 03:45:28;;;;;;;8.23;3.08;;;;;;;;;;5319501;26;20320;-67
2024/04/15 03:47:53;;;;;;;6.35;2.25;;;;;;;;;;5347295;26;20001;-67
2024/04/15 03:50:20;;;;;;;4.10;1.92;;;;;;;;;;5342449;26;20012;-67
2024/04/15 03:52:45;;;;;;;8.52;2.15;;;;;;;;;;5321017;26;20456;-67
2024/04/15 03:55:11;;;;;;;9.57;2.38;;;;;;;;;;5311295;26;20071;-67
2024/04/15 03:57:36;;;;;;;3.63;1.98;;;;;;;;;;5311021;27;19998;-67
2024/04/15 04:00:01;;;;;;;9.60;1.92;;;;;;;;;;5326069;26;19997;-67
2024/04/15 04:02:27;;;;;;;9.35;2.10;;;;;;;;;;5320310;26;20002;-67
2024/04/15 04:04:52;;;;;;;9.48;2.30;;;;;;;;;;5312127;26;20388;-67
2024/04/15 04:07:18;;;;;;;4.88;1.92;;;;;;;;;;5322216;26;20009;-67
2024/04/15 04:09:43;;;;;;;11.27;2.55;;;;;;;;;;5312464;26;20474;-67
2024/04/15 04:12:08;;;;;;;6.15;2.45;;;;;;;;;;5310156;26;20001;-68
2024/04/15 04:14:34;;;;;;;5.15;2.08;;;;;;;;;;5311949;26;19998;-67
2024/04/15 04:16:59;;;;;;;5.40;2.30;;;;;;;;;;5311356;26;20053;-67
2024/04/15 04:19:25;;;;;;;5.88;2.25;;;;;;;;;;5312485;26;20030;-67
2024/04/15 04:21:51;;;;;;;10.88;2.33;;;;;;;;;;5311146;27;20038;-67
2024/04/15 04:24:16;;;;;;;6.95;2.55;;;;;;;;;;5323166;26;20335;-68
2024/04/15 04:26:42;;;;;;;9.23;1.80;;;;;;;;;;5309077;27;20353;-67
2024/04/15 04:29:07;;;;;;;9.30;2.45;;;;;;;;;;5338600;26;19998;-68
2024/04/15 04:31:32;;;;;;;8.27;2.08;;;;;;;;;;5311905;26;20445;-67
2024/04/15 04:33:58;;;;;;;4.78;2.05;;;;;;;;;;5312259;26;19997;-68
2024/04/15 04:36:24;;;;;;;7.97;2.20;;;;;;;;;;5311401;26;19997;-67
2024/04/15 04:38:49;;;;;;;10.05;3.53;;;;;;;;;;5312107;26;20033;-68
2024/04/15 04:41:14;;;;;;;7.68;3.30;;;;;;;;;;5312099;26;19994;-67
2024/04/15 04:43:40;;;;;;;9.35;2.92;;;;;;;;;;5312211;26;20009;-68
2024/04/15 04:46:09;;;;;;;7.20;2.63;;;;;;;;;;5312424;26;20029;-68
2024/04/15 04:48:34;;;;;;;10.68;3.60;;;;;;;;;;5311496;26;20083;-67
2024/04/15 04:51:06;;;;;;;14.95;3.33;;;;;;;;;;5312042;26;20001;-67
2024/04/15 04:53:32;;;;;;;5.22;2.95;;;;;;;;;;5310188;27;20008;-68
2024/04/15 04:56:11;;;;;;;9.45;3.00;;;;;;;;;;5312074;26;19997;-68
2024/04/15 04:58:40;;;;;;;12.25;3.05;;;;;;;;;;5312030;26;20417;-68
2024/04/15 05:01:16;;;;;;;13.02;3.72;;;;;;;;;;5310186;27;20001;-68
2024/04/15 05:03:48;;;;;;;10.10;2.88;;;;;;;;;;5311227;26;20466;-68
2024/04/15 05:06:15;;;;;;;13.50;3.38;;;;;;;;;;5311578;26;20303;-68
2024/04/15 05:08:42;;;;;;;9.38;3.13;;;;;;;;;;5311647;26;20543;-68
2024/04/15 05:11:07;;;;;;;10.77;3.70;;;;;;;;;;5311308;26;20566;-68
2024/04/15 05:13:33;;;;;;;19.70;4.65;;;;;;;;;;5311067;26;20002;-67
2024/04/15 05:16:09;;;;;;;14.00;3.58;;;;;;;;;;5311476;26;20075;-68
2024/04/15 05:18:36;;;;;;;6.18;2.80;;;;;;;;;;5311370;26;20021;-68
2024/04/15 05:21:02;;;;;;;16.48;3.38;;;;;;;;;;5309516;27;20460;-68
2024/04/15 05:23:28;;;;;;;11.13;2.70;;;;;;;;;;5309630;27;20012;-68
2024/04/15 05:25:54;;;;;;;12.43;3.13;;;;;;;;;;5309650;27;20010;-68
2024/04/15 05:28:20;;;;;;;11.27;3.42;;;;;;;;;;5310706;26;20009;-68
2024/04/15 05:30:45;;;;;;;6.57;3.05;;;;;;;;;;5314359;26;20012;-68
2024/04/15 05:33:10;;;;;;;12.35;3.28;;;;;;;;;;5314348;26;19998;-68
2024/04/15 05:35:36;;;;;;;15.60;3.25;;;;;;;;;;5314171;26;20009;-68
2024/04/15 05:38:01;;;;;;;8.40;3.20;;;;;;;;;;5313699;26;20008;-67
2024/04/15 05:40:26;;;;;;;10.52;3.20;;;;;;;;;;5314266;26;20013;-68
2024/04/15 05:42:51;;;;;;;8.95;2.40;;;;;;;;;;5314296;26;20012;-68
2024/04/15 05:45:17;;;;;;;13.60;2.97;;;;;;;;;;5314368;26;20025;-68
2024/04/15 05:47:42;;;;;;;16.20;4.43;;;;;;;;;;5311960;27;20038;-68
2024/04/15 05:50:07;;;;;;;12.38;2.90;;;;;;;;;;5313947;26;20013;-68
2024/04/15 05:52:33;;;;;;;17.92;4.38;;;;;;;;;;5313953;26;20001;-68
2024/04/15 05:54:58;;;;;;;15.57;3.78;;;;;;;;;;5314018;26;20456;-68
2024/04/15 05:57:23;;;;;;;14.32;3.28;;;;;;;;;;5314231;26;20015;-68
2024/04/15 05:59:49;;;;;;;21.17;4.20;;;;;;;;;;5309746;26;19997;-67
2024/04/15 06:02:14;;;;;;;11.90;3.90;;;;;;;;;;5310955;27;20444;-67
2024/04/15 06:04:39;;;;;;;9.23;2.97;;;;;;;;;;5321118;26;20474;-67
2024/04/15 06:07:05;;;;;;;12.07;3.42;;;;;;;;;;5311513;27;20001;-68
2024/04/15 06:09:31;;;;;;;9.95;3.55;;;;;;;;;;5313159;26;20075;-68
2024/04/15 06:11:56;;;;;;;14.43;3.97;;;;;;;;;;5313032;26;20455;-68
2024/04/15 06:14:22;;;;;;;16.35;4.03;;;;;;;;;;5332837;26;19993;-68
2024/04/15 06:16:52;;;;;;;14.05;2.72;;;;;;;;;;5348219;26;19997;-69
2024/04/15 06:19:17;;;;;;;14.13;3.85;;;;;;;;;;5348256;26;19997;-68
2024/04/15 06:21:42;;;;;;;10.27;3.40;;;;;;;;;;5348320;26;20008;-68
2024/04/15 06:24:08;;;;;;;7.45;3.95;;;;;;;;;;5347995;26;20008;-68
2024/04/15 06:26:33;;;;;;;17.80;3.45;;;;;;;;;;5347524;26;20001;-68
2024/04/15 06:28:59;;;;;;;15.57;3.40;;;;;;;;;;5345658;26;19996;-67
2024/04/15 06:31:24;;;;;;;12.23;3.03;;;;;;;;;;5357569;21;20011;-68
2024/04/15 06:33:49;;;;;;;15.68;3.60;;;;;;;;;;5347574;26;20344;-68
2024/04/15 06:36:14;;;;;;;12.25;3.38;;;;;;;;;;5347752;26;20453;-68
2024/04/15 06:38:40;;;;;;;17.48;3.33;;;;;;;;;;5347653;26;19993;-67
2024/04/15 06:41:05;;;;;;;8.27;3.55;;;;;;;;;;5347306;26;20443;-67
2024/04/15 06:43:30;;;;;;;12.00;3.53;;;;;;;;;;5347961;26;19993;-67
2024/04/15 06:45:56;;;;;;;6.13;3.10;;;;;;;;;;5347504;26;20338;-67
2024/04/15 06:48:21;;;;;;;6.00;3.25;;;;;;;;;;5347730;26;20455;-68
2024/04/15 06:50:47;;;;;;;19.70;3.65;;;;;;;;;;5346931;26;19993;-68
2024/04/15 06:53:12;;;;;;;19.90;4.53;;;;;;;;;;5348180;26;20009;-68
2024/04/15 06:55:37;;;;;;;13.93;3.45;;;;;;;;;;5348135;26;19993;-68
2024/04/15 06:58:03;;;;;;;9.02;3.08;;;;;;;;;;5348130;26;19995;-68
2024/04/15 07:00:28;;;;;;;16.40;3.17;;;;;;;;;;5346646;26;20005;-68
2024/04/15 07:02:53;;;;;;;6.40;3.30;;;;;;;;;;5347812;26;20462;-68
2024/04/15 07:05:19;;;;;;;10.65;3.83;;;;;;;;;;5339824;26;19998;-68
2024/04/15 07:07:44;;;;;;;9.50;2.78;;;;;;;;;;5320414;26;20075;-68
2024/04/15 07:10:10;;;;;;;7.82;2.85;;;;;;;;;;5345184;26;20015;-68
2024/04/15 07:12:36;;;;;;;13.15;3.75;;;;;;;;;;5339128;26;20005;-68
2024/04/15 07:15:01;;;;;;;15.95;4.32;;;;;;;;;;5313285;27;19994;-68
2024/04/15 07:17:26;;;;;;;6.90;2.72;;;;;;;;;;5317047;26;19989;-68
2024/04/15 07:19:51;;;;;;;11.75;3.00;;;;;;;;;;5323599;26;20466;-68
2024/04/15 07:22:18;;;;;;;15.25;2.50;;;;;;;;;;5312398;27;20074;-68
2024/04/15 07:24:46;;;;;;;9.45;2.47;;;;;;;;;;5346711;26;19997;-68
2024/04/15 07:27:11;;;;;;;11.57;3.55;;;;;;;;;;5312616;26;20002;-68
2024/04/15 07:29:36;;;;;;;16.90;3.67;;;;;;;;;;5317067;26;19994;-68
2024/04/15 07:32:04;;;;;;;8.82;2.53;;;;;;;;;;5339706;26;20447;-66
2024/04/15 07:34:29;;;;;;;8.75;2.95;;;;;;;;;;5310504;27;19990;-66
2024/04/15 07:36:54;;;;;;;5.90;3.03;;;;;;;;;;5312685;27;20355;-66
2024/04/15 07:39:19;;;;;;;8.30;2.90;;;;;;;;;;5335490;26;20011;-66
2024/04/15 07:41:45;;;;;;;8.27;2.35;;;;;;;;;;5346925;26;20007;-66
2024/04/15 07:44:11;;;;;;;15.05;2.88;;;;;;;;;;5345918;26;20378;-66
2024/04/15 07:46:36;;;;;;;12.30;3.00;;;;;;;;;;5333433;26;20291;-66
2024/04/15 07:49:01;;;;;;;12.55;2.42;;;;;;;;;;5325825;26;20016;-66
2024/04/15 07:51:27;;;;;;;12.38;2.83;;;;;;;;;;5344889;26;20063;-66
2024/04/15 07:53:52;;;;;;;6.82;2.13;;;;;;;;;;5342166;26;19993;-66
2024/04/15 07:56:18;;;;;;;7.55;2.40;;;;;;;;;;5312409;27;20002;-66
2024/04/15 07:58:43;;;;;;;8.77;2.50;;;;;;;;;;5311035;27;20001;-66
2024/04/15 08:01:09;;;;;;;6.75;2.63;;;;;;;;;;5319291;26;20013;-66
2024/04/15 08:03:34;;;;;;;8.98;2.45;;;;;;;;;;5346576;26;19989;-66
2024/04/15 08:05:59;;;;;;;9.75;2.85;;;;;;;;;;5346516;26;20071;-66
2024/04/15 08:08:24;;;;;;;8.75;2.50;;;;;;;;;;5346851;26;19993;-66
2024/04/15 08:10:50;;;;;;;13.20;2.97;;;;;;;;;;5345358;26;20302;-66
2024/04/15 08:13:15;;;;;;;8.40;3.05;;;;;;;;;;5346078;26;20016;-66
2024/04/15 08:15:44;;;;;;;9.45;2.03;;;;;;;;;;5346154;26;20003;-66
2024/04/15 08:18:09;;;;;;;4.72;2.13;;;;;;;;;;5338434;26;20087;-66
2024/04/15 08:20:36;;;;;;;8.23;2.47;;;;;;;;;;5311803;27;20447;-66
2024/04/15 08:23:01;;;;;;;6.40;2.22;;;;;;;;;;5310740;27;19998;-66
2024/04/15 08:25:26;;;;;;;13.30;2.72;;;;;;;;;;5338387;26;20000;-66
2024/04/15 08:27:52;;;;;;;8.20;3.00;;;;;;;;;;5345923;26;20432;-66
2024/04/15 08:30:19;;;;;;;9.48;2.40;;;;;;;;;;5345602;26;20037;-66
2024/04/15 08:32:44;;;;;;;8.95;2.15;;;;;;;;;;5346289;26;20044;-66
2024/04/15 08:35:09;;;;;;;13.82;3.08;;;;;;;;;;5344319;26;20008;-66
2024/04/15 08:37:35;;;;;;;8.23;2.33;;;;;;;;;;5316206;26;20099;-66
2024/04/15 08:40:00;;;;;;;8.75;2.30;;;;;;;;;;5311148;27;20460;-66
2024/04/15 08:42:44;;;;;;;7.40;2.13;;;;;;;;;;5322875;26;19997;-66
2024/04/15 08:45:15;;;;;;;8.60;2.85;;;;;;;;;;5344237;26;20012;-66
2024/04/15 08:47:46;;;;;;;4.10;1.98;;;;;;;;;;5342678;26;20004;-66
2024/04/15 08:50:11;;;;;;;12.95;2.75;;;;;;;;;;5337326;26;20005;-66
2024/04/15 08:52:37;;;;;;;12.82;2.80;;;;;;;;;;5311606;27;19993;-66
2024/04/15 08:55:03;;;;;;;7.00;2.88;;;;;;;;;;5312999;26;20351;-65
2024/04/15 08:57:31;;;;;;;9.23;2.42;;;;;;;;;;5329218;26;20075;-66
2024/04/15 08:59:57;;;;;;;7.10;2.92;;;;;;;;;;5317730;26;20437;-66
2024/04/15 09:02:22;;;;;;;8.60;2.90;;;;;;;;;;5309717;27;20144;-66
2024/04/15 09:04:48;;;;;;;7.88;2.38;;;;;;;;;;5313986;27;19994;-66
2024/04/15 09:07:13;;;;;;;10.35;3.65;;;;;;;;;;5338549;26;20294;-66
2024/04/15 09:09:39;;;;;;;9.40;2.63;;;;;;;;;;5348425;26;20334;-66
2024/04/15 09:12:04;;;;;;;7.47;2.05;;;;;;;;;;5347711;26;20004;-66
2024/04/15 09:14:29;;;;;;;12.55;2.75;;;;;;;;;;5348677;26;20631;-66
2024/04/15 09:16:55;;;;;;;6.80;2.42;;;;;;;;;;5348439;26;20081;-66
2024/04/15 09:19:24;;;;;;;6.85;2.28;;;;;;;;;;5348740;26;20401;-66
2024/04/15 09:21:49;;;;;;;7.88;2.35;;;;;;;;;;5347861;26;19996;-66
2024/04/15 09:24:15;;;;;;;9.65;2.72;;;;;;;;;;5348478;26;19997;-66
2024/04/15 09:26:41;;;;;;;10.43;2.53;;;;;;;;;;5348546;26;20021;-66
2024/04/15 09:29:06;;;;;;;5.60;2.40;;;;;;;;;;5322089;26;19993;-66
2024/04/15 09:31:31;;;;;;;7.38;2.72;;;;;;;;;;5312980;27;20009;-66
2024/04/15 09:33:58;;;;;;;9.95;3.28;;;;;;;;;;5313979;26;19994;-66
2024/04/15 09:36:23;;;;;;;6.60;2.25;;;;;;;;;;5316253;26;20502;-66
2024/04/15 09:38:49;;;;;;;6.97;3.03;;;;;;;;;;5313850;27;20010;-66
2024/04/15 09:41:14;;;;;;;4.55;2.22;;;;;;;;;;5321907;26;19998;-66
2024/04/15 09:43:39;;;;;;;11.23;2.33;;;;;;;;;;5313595;27;20464;-66
2024/04/15 09:46:05;;;;;;;5.93;2.33;;;;;;;;;;5320875;26;20000;-66
2024/04/15 09:48:31;;;;;;;8.00;2.30;;;;;;;;;;5348444;26;20340;-66
2024/04/15 09:51:00;;;;;;;9.50;2.42;;;;;;;;;;5347679;26;20003;-66
2024/04/15 09:53:38;;;;;;;10.30;2.72;;;;;;;;;;5312015;27;20080;-66
2024/04/15 09:56:18;;;;;;;12.18;2.40;;;;;;;;;;5313384;26;20002;-66
2024/04/15 09:58:44;;;;;;;6.35;2.05;;;;;;;;;;5321823;26;20412;-66
2024/04/15 10:01:13;;;;;;;8.55;2.90;;;;;;;;;;5319716;26;20017;-66
2024/04/15 10:03:40;;;;;;;11.93;2.83;;;;;;;;;;5311502;27;20530;-66
2024/04/15 10:06:06;;;;;;;9.63;2.50;;;;;;;;;;5317862;26;20555;-66
2024/04/15 10:08:32;;;;;;;5.38;2.33;;;;;;;;;;5317442;26;20076;-66
2024/04/15 10:10:58;;;;;;;5.03;2.85;;;;;;;;;;5313584;26;20009;-66
2024/04/15 10:13:24;;;;;;;11.60;3.00;;;;;;;;;;5314512;26;19998;-66
2024/04/15 10:15:58;;;;;;;5.70;4.13;;;;;;;;;;5343223;26;20082;-66
2024/04/15 10:18:28;;;;;;;7.93;2.65;;;;;;;;;;5313135;26;20001;-66
2024/04/15 10:20:53;;;;;;;5.57;2.58;;;;;;;;;;5317336;26;20026;-66
2024/04/15 10:23:19;;;;;;;12.32;2.80;;;;;;;;;;5313426;27;20080;-66
2024/04/15 10:25:45;;;;;;;8.93;2.83;;;;;;;;;;5313136;26;19998;-66
2024/04/15 10:28:11;;;;;;;11.25;3.08;;;;;;;;;;5313424;26;20016;-66
2024/04/15 10:30:37;;;;;;;10.45;2.63;;;;;;;;;;5311946;26;20012;-66
2024/04/15 10:33:05;;;;;;;11.50;3.30;;;;;;;;;;5334587;26;20074;-66
2024/04/15 10:35:38;;;;;;;8.13;2.75;;;;;;;;;;5347658;26;20071;-66
2024/04/15 10:38:08;;;;;;;7.70;3.03;;;;;;;;;;5347348;26;19997;-66
2024/04/15 10:40:46;;;;;;;6.45;2.58;;;;;;;;;;5347020;26;20009;-66
2024/04/15 10:43:13;;;;;;;6.60;2.75;;;;;;;;;;5346292;26;20441;-66
2024/04/15 10:45:38;;;;;;;10.60;3.45;;;;;;;;;;5348599;26;20005;-66
2024/04/15 10:48:04;;;;;;;6.85;3.08;;;;;;;;;;5312562;26;20077;-66
2024/04/15 10:50:29;;;;;;;6.82;3.03;;;;;;;;;;5352478;26;20019;-66
2024/04/15 10:52:54;;;;;;;7.20;3.08;;;;;;;;;;5347297;26;20450;-66
2024/04/15 10:55:20;;;;;;;7.22;3.75;;;;;;;;;;5343650;26;20040;-66
2024/04/15 10:57:46;;;;;;;10.45;4.18;;;;;;;;;;5313376;26;20002;-66
2024/04/15 11:00:13;;;;;;;9.48;3.85;;;;;;;;;;5311866;26;19997;-66
2024/04/15 11:02:40;;;;;;;9.98;4.30;;;;;;;;;;5341989;26;20033;-66
2024/04/15 11:05:06;;;;;;;11.15;3.60;;;;;;;;;;5345361;26;20001;-66
2024/04/15 11:07:32;;;;;;;8.10;3.70;;;;;;;;;;5330773;26;20034;-66
2024/04/15 11:09:58;;;;;;;9.52;4.07;;;;;;;;;;5312790;27;20001;-66
2024/04/15 11:12:24;;;;;;;14.95;4.53;;;;;;;;;;5321899;26;20346;-66
2024/04/15 11:14:53;;;;;;;16.30;4.75;;;;;;;;;;5339301;26;20101;-66
2024/04/15 11:17:18;;;;;;;9.60;4.22;;;;;;;;;;5342989;26;19997;-66
2024/04/15 11:19:43;;;;;;;13.75;5.00;;;;;;;;;;5338788;26;20004;-66
2024/04/15 11:22:09;;;;;;;11.52;5.47;;;;;;;;;;5346502;26;20082;-66
2024/04/15 11:24:35;;;;;;;13.68;4.82;;;;;;;;;;5346989;26;19997;-66
2024/04/15 11:27:06;;;;;;;15.82;4.60;;;;;;;;;;5345375;26;20017;-66
2024/04/15 11:29:32;;;;;;;11.15;5.13;;;;;;;;;;5345101;26;19992;-66
2024/04/15 11:31:57;;;;;;;12.35;5.30;;;;;;;;;;5339601;26;19997;-65
2024/04/15 11:34:23;;;;;;;12.50;5.47;;;;;;;;;;5312722;27;20012;-66
2024/04/15 11:36:49;;;;;;;10.95;4.80;;;;;;;;;;5313774;26;20420;-65
2024/04/15 11:39:15;;;;;;;13.00;5.60;;;;;;;;;;5312573;26;20000;-66
2024/04/15 11:41:41;;;;;;;11.52;5.55;;;;;;;;;;5311559;26;20008;-66
2024/04/15 11:44:08;;;;;;;13.00;5.10;;;;;;;;;;5333872;26;20346;-66
2024/04/15 11:46:39;;;;;;;13.23;5.35;;;;;;;;;;5345816;26;20017;-66
2024/04/15 11:49:04;;;;;;;10.63;5.18;;;;;;;;;;5338104;26;20363;-66
2024/04/15 11:51:29;;;;;;;16.48;4.72;;;;;;;;;;5344512;26;20005;-66
2024/04/15 11:53:55;;;;;;;8.25;4.05;;;;;;;;;;5346223;26;20029;-66
2024/04/15 11:56:21;;;;;;;10.07;4.63;;;;;;;;;;5334714;26;20072;-66
2024/04/15 11:58:47;;;;;;;8.35;4.75;;;;;;;;;;5311929;26;20010;-66
2024/04/15 12:01:12;;;;;;;8.50;4.97;;;;;;;;;;5325391;26;20006;-66
2024/04/15 12:03:38;;;;;;;25.58;6.10;;;;;;;;;;5309940;27;20475;-66
2024/04/15 12:06:05;;;;;;;14.52;5.22;;;;;;;;;;5312019;26;20433;-66
2024/04/15 12:08:31;;;;;;;16.48;5.40;;;;;;;;;;5338530;26;20011;-66
2024/04/15 12:10:56;;;;;;;10.40;4.03;;;;;;;;;;5345766;26;19997;-66
2024/04/15 12:13:21;;;;;;;14.18;4.65;;;;;;;;;;5338663;26;20005;-66
2024/04/15 12:15:47;;;;;;;11.85;4.57;;;;;;;;;;5312140;27;20003;-66
2024/04/15 12:18:12;;;;;;;11.65;4.85;;;;;;;;;;5311409;26;20001;-66
2024/04/15 12:20:37;;;;;;;9.50;5.13;;;;;;;;;;5335630;26;20033;-65
2024/04/15 12:23:03;;;;;;;11.63;4.65;;;;;;;;;;5311194;27;20368;-66
2024/04/15 12:25:28;;;;;;;15.02;4.53;;;;;;;;;;5323782;26;20009;-66
2024/04/15 12:27:53;;;;;;;9.02;4.43;;;;;;;;;;5344374;26;20090;-66
2024/04/15 12:32:46;;;;;;;7.88;4.00;;;;;;;;;;5317286;26;20483;-66
2024/04/15 12:35:12;;;;;;;8.07;4.22;;;;;;;;;;5311226;27;20012;-67
2024/04/15 12:37:37;;;;;;;4.55;3.30;;;;;;;;;;5323962;26;20012;-67
2024/04/15 12:40:07;;;;;;;8.75;3.72;;;;;;;;;;5346039;26;20004;-67
2024/04/15 12:42:32;;;;;;;7.35;4.63;;;;;;;;;;5343081;26;20021;-67
2024/04/15 12:44:58;;;;;;;6.18;3.22;;;;;;;;;;5312909;26;19997;-68
2024/04/15 12:47:23;;;;;;;8.60;4.43;;;;;;;;;;5311025;26;20002;-67
2024/04/15 12:49:48;;;;;;;9.18;3.90;;;;;;;;;;5324835;26;20005;-67
2024/04/15 12:52:13;;;;;;;7.82;4.07;;;;;;;;;;5345784;26;20346;-67
2024/04/15 12:54:39;;;;;;;6.53;4.40;;;;;;;;;;5341872;26;20072;-66
2024/04/15 12:57:04;;;;;;;7.15;4.13;;;;;;;;;;5338306;26;20453;-68
2024/04/15 12:59:30;;;;;;;6.78;4.65;;;;;;;;;;5337469;26;19997;-67
2024/04/15 13:01:56;;;;;;;6.38;4.28;;;;;;;;;;5344550;26;20001;-67
2024/04/15 13:04:21;;;;;;;7.20;4.30;;;;;;;;;;5344829;26;19993;-66
2024/04/15 13:06:47;;;;;;;6.50;3.50;;;;;;;;;;5345875;26;19996;-67
2024/04/15 13:09:12;;;;;;;8.68;3.72;;;;;;;;;;5345387;26;20353;-67
2024/04/15 13:11:37;;;;;;;8.93;4.07;;;;;;;;;;5342155;26;20041;-67
2024/04/15 13:14:02;;;;;;;8.55;4.57;;;;;;;;;;5337751;26;20011;-68
2024/04/15 13:16:28;;;;;;;9.45;4.40;;;;;;;;;;5345095;26;20378;-68
2024/04/15 13:18:53;;;;;;;6.82;4.45;;;;;;;;;;5334666;26;20013;-68
2024/04/15 13:21:18;;;;;;;6.43;4.28;;;;;;;;;;5345681;26;19993;-67
2024/04/15 13:23:50;;;;;;;8.20;5.07;;;;;;;;;;5339995;26;20335;-66
2024/04/15 13:26:15;;;;;;;8.07;4.97;;;;;;;;;;5343886;26;19997;-67
2024/04/15 13:28:40;;;;;;;12.57;5.95;;;;;;;;;;5334672;26;20009;-67
2024/04/15 13:31:07;;;;;;;12.13;5.25;;;;;;;;;;5321118;26;20074;-67
2024/04/15 13:33:32;;;;;;;7.85;5.15;;;;;;;;;;5324525;26;19996;-67
2024/04/15 13:35:58;;;;;;;12.02;6.15;;;;;;;;;;5351376;26;19997;-67
2024/04/15 13:38:23;;;;;;;8.90;5.35;;;;;;;;;;5347146;26;19997;-67
2024/04/15 13:40:49;;;;;;;6.72;5.07;;;;;;;;;;5350744;26;20011;-68
2024/04/15 13:43:14;;;;;;;6.35;4.32;;;;;;;;;;5344418;26;20423;-67
2024/04/15 13:45:39;;;;;;;9.88;4.32;;;;;;;;;;5326004;26;19996;-67
2024/04/15 13:48:05;;;;;;;7.65;4.32;;;;;;;;;;5379589;26;20073;-67
2024/04/15 13:50:30;;;;;;;6.95;4.00;;;;;;;;;;5381210;26;20024;-67
2024/04/15 13:52:55;;;;;;;10.63;4.60;;;;;;;;;;5383804;26;20007;-67
2024/04/15 13:55:21;;;;;;;9.00;4.43;;;;;;;;;;5382772;26;20091;-67
2024/04/15 13:57:46;;;;;;;11.18;4.40;;;;;;;;;;5372791;26;20454;-67
2024/04/15 14:00:12;;;;;;;8.75;5.05;;;;;;;;;;5372766;26;20176;-67
2024/04/15 14:02:38;;;;;;;7.97;4.30;;;;;;;;;;5383297;26;20000;-67
2024/04/15 14:05:04;;;;;;;6.30;3.80;;;;;;;;;;5347171;26;20334;-67
2024/04/15 14:07:29;;;;;;;8.75;3.92;;;;;;;;;;5380495;26;20074;-67
2024/04/15 14:09:54;;;;;;;4.85;2.85;;;;;;;;;;5383131;26;20011;-67
2024/04/15 14:12:19;;;;;;;4.95;2.97;;;;;;;;;;5383233;26;20342;-68
2024/04/15 14:14:45;;;;;;;7.75;3.58;;;;;;;;;;5383073;26;20478;-67
2024/04/15 14:17:12;;;;;;;7.78;3.58;;;;;;;;;;5382870;26;20065;-67
2024/04/15 14:19:38;;;;;;;9.57;3.70;;;;;;;;;;5352818;26;20000;-67
2024/04/15 14:22:04;;;;;;;9.10;4.20;;;;;;;;;;5382448;26;20011;-67
2024/04/15 14:24:29;;;;;;;5.88;3.65;;;;;;;;;;5371885;26;20028;-67
2024/04/15 14:26:55;;;;;;;6.68;4.55;;;;;;;;;;5382739;26;20008;-66
2024/04/15 14:29:20;;;;;;;8.18;4.03;;;;;;;;;;5382846;26;20027;-67
2024/04/15 14:31:45;;;;;;;7.18;4.30;;;;;;;;;;5382592;26;20074;-67
2024/04/15 14:34:11;;;;;;;5.90;4.45;;;;;;;;;;5382924;26;20491;-67